Terminal Aerodrome Forecast
Issued by NWS

Home | Current Version | Previous Version | Text Only | Print | Product List | Glossary On
Versions: 1 2 3 4 5 6 7 8 9 10 11 12 13 14 15 16 17 18 19 20 21 22 23 24 25 26
000
FTUS45 KPSR 261408 AAA
TAFPHX
TAF AMD
KPHX 261408Z 2614/2718 11005KT P6SM SCT250
     FM261700 24010KT P6SM SCT250
     FM262100 26012G16KT P6SM FEW250
     FM270500 27009KT P6SM FEW250
     FM271200 10006KT P6SM SKC=

USA.gov is the U.S. government's official web portal to all federal, state and local government web resources and services.